Tillamook, OR

10:25 PM PST on February 10, 2016 (GMT -0800)
Tillamook | | Change Station
CLOSE
Current Station
Airport
Location: Tillamook,
Elevation: 36 ft
Nearby Weather Stations

Elev 36 ft 45.42 °N, 123.81 °W | Updated 10 minutes ago

Overcast
Overcast
52 °F
Feels Like 52 °F
N
0
Wind Variable Wind from North

Today
High -- | Low -- °F
--% Chance of Precip.
Yesterday
High -- | Low -- °F
Precip. -- in
Pressure 30.25 in
Visibility 0.2 miles
Clouds Overcast 100 ft
Dew Point 52 °F
Humidity 100%
Rainfall 0.22 in
Snow Depth Not available.
7:24 AM 5:34 PM
Waxing Crescent, 9% visible
METAR KTMK 110615Z AUTO 00000KT 1/4SM FG OVC001 11/11 A3025 RMK AO2
Pressure 30.25 in
Visibility 0.2 miles
Clouds Overcast 100 ft
Dew Point 52 °F
Humidity 100%
Rainfall 0.22 in
Snow Depth Not available.
7:24 AM 5:34 PM
Waxing Crescent, 9% visible
METAR KTMK 110615Z AUTO 00000KT 1/4SM FG OVC001 11/11 A3025 RMK AO2

10-Day Weather Forecast

Almanac

Astronomy

Feb. 10, 2016 Rise Set
Actual Time
Civil Twilight
Nautical Twilight
Astronomical Twilight
Moon
Length of Visible Light
Length of Day
Tomorrow will be .
, % of the Moon is Illuminated

Today's Extremes

State Highs State Lows

Community

WunderPhotos

Upload Photos

1,892,030 photos uploaded!

WunderBlog® & News

Nearby

Air Quality

  Air Quality AQ Index Pollutant
Not available.

Snow Depth

Station Depth Elevation

Earthquake Activity

City Distance Mag. Time & Date
Minimum magnitude displayed is 2.5.

Coastal Water Temperatures

Place Temperature

Stations

Nearby Weather Stations

Station Location Temp. Windchill Dew Point Humidity Wind Precip. Elev Updated Type
                   

Watches & Warnings

There are currently no watches in effect.